Time;durP1;ratioP1;P1;durP2;ratioP2;P2;SDS_P1;SDS_P2;PMS_P1;PMS_P2;Temp;Humidity;BMP_temperature;BMP_pressure;BME280_temperature;BME280_humidity;BME280_pressure;Samples;Min_cycle;Max_cycle;Signal;HPM_P1;HPM_P2
2022/07/11 00:00:45;;;;;;;6.20;1.73;;;;;;;;;;4939185;28;20270;-52
2022/07/11 00:03:12;;;;;;;3.83;1.60;;;;;;;;;;4975653;28;20181;-54
2022/07/11 00:05:38;;;;;;;5.65;1.70;;;;;;;;;;4955926;28;20182;-55
2022/07/11 00:08:06;;;;;;;2.97;1.58;;;;;;;;;;4925059;29;20186;-53
2022/07/11 00:10:33;;;;;;;6.97;1.88;;;;;;;;;;4938595;28;20191;-54
2022/07/11 00:12:59;;;;;;;4.15;1.70;;;;;;;;;;4957159;28;20175;-53
2022/07/11 00:15:26;;;;;;;6.10;2.05;;;;;;;;;;4956627;28;20300;-54
2022/07/11 00:17:52;;;;;;;5.20;1.80;;;;;;;;;;4940178;28;20594;-54
2022/07/11 00:20:18;;;;;;;6.53;1.60;;;;;;;;;;4963213;28;20214;-55
2022/07/11 00:22:44;;;;;;;6.20;1.95;;;;;;;;;;4938583;29;20186;-54
2022/07/11 00:25:10;;;;;;;6.13;1.80;;;;;;;;;;4956626;29;20187;-54
2022/07/11 00:27:36;;;;;;;7.55;2.00;;;;;;;;;;4939551;29;20193;-53
2022/07/11 00:30:03;;;;;;;4.38;1.75;;;;;;;;;;4923768;29;20607;-51
2022/07/11 00:32:29;;;;;;;5.90;1.70;;;;;;;;;;4956692;28;20197;-55
2022/07/11 00:34:55;;;;;;;5.07;1.65;;;;;;;;;;4955665;28;20569;-52
2022/07/11 00:37:21;;;;;;;4.38;1.60;;;;;;;;;;4956357;29;20183;-55
2022/07/11 00:39:47;;;;;;;5.53;1.80;;;;;;;;;;4955406;28;20524;-53
2022/07/11 00:42:16;;;;;;;4.95;1.90;;;;;;;;;;4956275;29;20240;-49
2022/07/11 00:44:42;;;;;;;4.55;1.63;;;;;;;;;;4955816;28;20246;-54
2022/07/11 00:47:09;;;;;;;4.97;1.70;;;;;;;;;;4956351;29;20230;-53
2022/07/11 00:49:35;;;;;;;3.97;1.63;;;;;;;;;;4922582;29;20191;-54
2022/07/11 00:52:01;;;;;;;9.00;2.08;;;;;;;;;;4956003;28;20205;-53
2022/07/11 00:54:27;;;;;;;6.50;1.50;;;;;;;;;;4954790;28;20257;-55
2022/07/11 00:56:53;;;;;;;4.53;1.80;;;;;;;;;;4955955;29;20626;-53
2022/07/11 00:59:20;;;;;;;8.93;2.35;;;;;;;;;;4956582;29;20175;-54
2022/07/11 01:01:46;;;;;;;6.40;1.77;;;;;;;;;;4955880;29;20218;-54
2022/07/11 01:04:13;;;;;;;4.82;1.80;;;;;;;;;;4941232;29;20588;-49
2022/07/11 01:06:39;;;;;;;6.80;1.70;;;;;;;;;;4949509;28;20261;-55
2022/07/11 01:09:05;;;;;;;3.70;1.70;;;;;;;;;;4935766;29;20196;-54
2022/07/11 01:11:32;;;;;;;8.60;2.00;;;;;;;;;;4953460;28;20206;-54
2022/07/11 01:13:58;;;;;;;7.72;1.90;;;;;;;;;;4939069;29;20178;-54
2022/07/11 01:16:24;;;;;;;8.10;2.00;;;;;;;;;;4955720;29;20367;-55
2022/07/11 01:18:52;;;;;;;9.25;2.15;;;;;;;;;;4944379;29;20193;-55
2022/07/11 01:21:20;;;;;;;6.78;1.75;;;;;;;;;;4954900;28;20234;-54
2022/07/11 01:23:50;;;;;;;4.95;1.73;;;;;;;;;;4954624;28;20187;-54
2022/07/11 01:26:16;;;;;;;5.88;2.28;;;;;;;;;;4951238;29;20225;-54
2022/07/11 01:28:43;;;;;;;5.85;2.30;;;;;;;;;;4955033;28;20187;-53
2022/07/11 01:31:09;;;;;;;6.55;2.00;;;;;;;;;;4938631;29;20193;-55
2022/07/11 01:33:35;;;;;;;5.30;1.75;;;;;;;;;;4955334;28;20179;-52
2022/07/11 01:36:02;;;;;;;8.35;2.17;;;;;;;;;;4955045;28;20182;-53
2022/07/11 01:38:28;;;;;;;9.35;2.33;;;;;;;;;;4954559;28;20646;-55
2022/07/11 01:40:54;;;;;;;8.75;2.30;;;;;;;;;;4938154;29;20278;-52
2022/07/11 01:43:20;;;;;;;5.38;2.45;;;;;;;;;;4953197;28;20182;-51
2022/07/11 01:45:46;;;;;;;8.90;2.75;;;;;;;;;;4974759;28;20185;-50
2022/07/11 01:48:13;;;;;;;6.60;2.45;;;;;;;;;;4974683;28;20192;-51
2022/07/11 01:50:39;;;;;;;7.82;2.55;;;;;;;;;;4941530;28;20281;-55
2022/07/11 01:53:05;;;;;;;9.88;2.80;;;;;;;;;;4954656;29;20269;-48
2022/07/11 01:55:31;;;;;;;11.98;2.47;;;;;;;;;;4921672;29;20175;-54
2022/07/11 01:57:57;;;;;;;9.13;2.95;;;;;;;;;;4936660;29;20191;-51
2022/07/11 02:00:26;;;;;;;8.15;2.58;;;;;;;;;;4939738;28;20561;-53
2022/07/11 02:02:53;;;;;;;8.50;2.70;;;;;;;;;;4955181;29;20179;-50
2022/07/11 02:05:19;;;;;;;8.05;2.72;;;;;;;;;;4954882;28;20182;-48
2022/07/11 02:10:30;;;;;;;8.82;2.70;;;;;;;;;;4954584;29;20187;-50
2022/07/11 02:12:58;;;;;;;7.47;2.60;;;;;;;;;;4936796;29;20190;-51
2022/07/11 02:15:24;;;;;;;3.95;2.00;;;;;;;;;;4937545;29;20223;-51
2022/07/11 02:17:52;;;;;;;4.00;1.83;;;;;;;;;;4945862;28;20206;-53
2022/07/11 02:20:20;;;;;;;5.82;1.80;;;;;;;;;;4974118;28;20716;-53
2022/07/11 02:22:46;;;;;;;7.00;2.10;;;;;;;;;;4971026;28;20184;-54
2022/07/11 02:25:13;;;;;;;7.72;2.25;;;;;;;;;;4953772;29;20257;-49
2022/07/11 02:27:39;;;;;;;5.53;2.10;;;;;;;;;;4954646;29;20175;-52
2022/07/11 02:30:05;;;;;;;5.28;2.03;;;;;;;;;;4954864;29;20661;-52
2022/07/11 02:32:31;;;;;;;7.93;1.80;;;;;;;;;;4954597;28;20183;-53
2022/07/11 02:34:57;;;;;;;7.72;2.15;;;;;;;;;;4962250;28;20217;-50
2022/07/11 02:37:23;;;;;;;8.77;2.20;;;;;;;;;;4973844;28;20233;-50
2022/07/11 02:39:49;;;;;;;7.13;2.40;;;;;;;;;;4970788;28;20393;-52
2022/07/11 02:42:16;;;;;;;7.53;2.65;;;;;;;;;;4937016;29;20675;-54
2022/07/11 02:44:42;;;;;;;8.43;2.30;;;;;;;;;;4922193;29;20194;-55
2022/07/11 02:47:08;;;;;;;6.70;2.60;;;;;;;;;;4954402;28;20179;-48
2022/07/11 02:49:34;;;;;;;6.57;2.20;;;;;;;;;;4936412;29;20218;-53
2022/07/11 02:52:01;;;;;;;6.38;2.08;;;;;;;;;;4937547;29;20207;-53
2022/07/11 02:54:28;;;;;;;7.93;2.42;;;;;;;;;;4937267;29;20182;-50
2022/07/11 02:56:54;;;;;;;7.43;2.38;;;;;;;;;;4954532;29;20189;-51
2022/07/11 02:59:21;;;;;;;10.48;2.50;;;;;;;;;;4953435;28;20179;-55
2022/07/11 03:01:48;;;;;;;5.03;2.63;;;;;;;;;;4954111;29;20218;-51
2022/07/11 03:04:14;;;;;;;9.82;3.10;;;;;;;;;;4955005;29;20685;-52
2022/07/11 03:06:40;;;;;;;7.20;2.47;;;;;;;;;;4937536;29;20270;-55
2022/07/11 03:09:07;;;;;;;8.35;2.30;;;;;;;;;;4964227;28;20277;-55
2022/07/11 03:11:33;;;;;;;14.73;2.80;;;;;;;;;;4956520;28;20244;-53
2022/07/11 03:14:00;;;;;;;5.20;2.30;;;;;;;;;;4960143;28;20186;-54
2022/07/11 03:16:27;;;;;;;6.75;2.53;;;;;;;;;;4957399;28;20230;-55
2022/07/11 03:18:53;;;;;;;8.02;2.40;;;;;;;;;;4940246;29;20286;-54
2022/07/11 03:21:20;;;;;;;7.80;2.85;;;;;;;;;;4957280;29;20210;-53
2022/07/11 03:23:46;;;;;;;11.98;2.88;;;;;;;;;;4957503;29;20190;-53
2022/07/11 03:26:12;;;;;;;12.80;2.70;;;;;;;;;;4969396;28;20178;-50
2022/07/11 03:28:39;;;;;;;8.60;2.90;;;;;;;;;;4967081;28;20189;-53
2022/07/11 03:31:05;;;;;;;8.48;2.80;;;;;;;;;;4939959;28;20199;-54
2022/07/11 03:33:31;;;;;;;7.78;2.38;;;;;;;;;;4957475;28;20175;-56
2022/07/11 03:35:57;;;;;;;6.07;2.17;;;;;;;;;;4957818;29;20182;-54
2022/07/11 03:38:23;;;;;;;3.15;1.70;;;;;;;;;;4956803;28;20280;-53
2022/07/11 03:46:27;;;;;;;5.82;2.97;;;;;;;;;;4936121;27;20225;-56
2022/07/11 03:48:53;;;;;;;7.28;3.88;;;;;;;;;;4976738;28;20186;-56
2022/07/11 03:51:19;;;;;;;5.88;3.83;;;;;;;;;;4976985;28;20185;-56
2022/07/11 03:53:45;;;;;;;9.15;4.40;;;;;;;;;;4976530;28;20182;-55
2022/07/11 03:56:11;;;;;;;6.40;3.47;;;;;;;;;;4975309;28;20338;-55
2022/07/11 03:58:37;;;;;;;7.15;3.60;;;;;;;;;;4959036;28;20178;-56
2022/07/11 04:01:04;;;;;;;6.50;2.92;;;;;;;;;;4956076;29;20559;-54
2022/07/11 04:03:30;;;;;;;5.18;3.10;;;;;;;;;;4956945;29;20205;-56
2022/07/11 04:05:56;;;;;;;4.70;2.90;;;;;;;;;;4972529;28;20233;-57
2022/07/11 04:08:22;;;;;;;3.70;2.63;;;;;;;;;;4976430;28;20280;-56
2022/07/11 04:10:48;;;;;;;5.57;2.58;;;;;;;;;;4975695;28;20206;-55
2022/07/11 04:13:14;;;;;;;6.07;3.10;;;;;;;;;;4962340;28;20186;-55
2022/07/11 04:15:40;;;;;;;5.57;2.70;;;;;;;;;;4956928;28;20237;-56
2022/07/11 04:18:06;;;;;;;6.32;2.65;;;;;;;;;;4976227;28;20178;-54
2022/07/11 04:20:32;;;;;;;6.82;2.88;;;;;;;;;;4958329;28;20177;-53
2022/07/11 04:22:58;;;;;;;8.57;2.80;;;;;;;;;;4975320;28;20197;-55
2022/07/11 04:25:25;;;;;;;5.32;2.53;;;;;;;;;;4958649;28;20184;-56
2022/07/11 04:27:51;;;;;;;5.53;2.42;;;;;;;;;;4975335;28;20610;-56
2022/07/11 04:30:17;;;;;;;7.65;2.72;;;;;;;;;;4975570;28;20198;-56
2022/07/11 04:32:43;;;;;;;6.68;2.63;;;;;;;;;;4974801;28;20197;-56
2022/07/11 04:35:10;;;;;;;2.88;2.40;;;;;;;;;;4975759;28;20213;-54
2022/07/11 04:37:36;;;;;;;5.78;2.95;;;;;;;;;;4975320;28;20205;-54
2022/07/11 04:40:02;;;;;;;6.75;3.40;;;;;;;;;;4957809;28;20197;-56
2022/07/11 04:42:28;;;;;;;7.57;5.20;;;;;;;;;;4974462;28;20553;-56
2022/07/11 04:44:54;;;;;;;10.43;5.72;;;;;;;;;;4974913;28;20222;-55
2022/07/11 04:47:21;;;;;;;11.68;6.10;;;;;;;;;;4974966;28;20193;-56
2022/07/11 04:49:47;;;;;;;11.82;5.90;;;;;;;;;;4974918;28;20182;-56
2022/07/11 04:52:14;;;;;;;9.82;6.53;;;;;;;;;;4975159;28;20205;-56
2022/07/11 04:54:40;;;;;;;11.07;7.22;;;;;;;;;;4974686;28;20178;-56
2022/07/11 04:57:06;;;;;;;11.55;6.13;;;;;;;;;;4971462;28;20268;-55
2022/07/11 04:59:32;;;;;;;9.68;5.20;;;;;;;;;;4975324;28;20277;-54
2022/07/11 05:01:59;;;;;;;8.48;4.90;;;;;;;;;;4974338;28;20300;-56
2022/07/11 05:04:25;;;;;;;7.18;5.05;;;;;;;;;;4957993;28;20189;-55
2022/07/11 05:06:51;;;;;;;10.18;5.00;;;;;;;;;;4971330;28;20192;-55
2022/07/11 05:09:17;;;;;;;9.85;5.47;;;;;;;;;;4975307;28;20190;-54
2022/07/11 05:11:43;;;;;;;9.32;5.47;;;;;;;;;;4974241;28;20201;-56
2022/07/11 05:14:09;;;;;;;10.27;5.35;;;;;;;;;;4975264;28;20189;-55
2022/07/11 05:16:35;;;;;;;8.18;5.28;;;;;;;;;;4957625;28;20194;-56
2022/07/11 05:19:02;;;;;;;8.40;4.85;;;;;;;;;;4975434;28;20178;-54
2022/07/11 05:21:28;;;;;;;9.82;5.20;;;;;;;;;;4974586;28;20206;-55
2022/07/11 05:23:54;;;;;;;7.72;4.13;;;;;;;;;;4974469;28;20185;-53
2022/07/11 05:26:20;;;;;;;5.20;3.70;;;;;;;;;;4974809;28;20182;-56
2022/07/11 05:28:47;;;;;;;7.43;4.22;;;;;;;;;;4974490;28;20269;-55
2022/07/11 05:31:13;;;;;;;8.73;4.50;;;;;;;;;;4974591;28;20193;-54
2022/07/11 05:33:39;;;;;;;8.18;3.80;;;;;;;;;;4973719;28;20185;-53
2022/07/11 05:36:05;;;;;;;6.40;3.45;;;;;;;;;;4973902;28;20178;-55
2022/07/11 05:38:31;;;;;;;6.32;3.45;;;;;;;;;;4971031;28;20190;-56
2022/07/11 05:40:59;;;;;;;7.43;3.92;;;;;;;;;;4940572;28;20229;-55
2022/07/11 05:43:26;;;;;;;12.02;3.65;;;;;;;;;;4973953;28;20186;-54
2022/07/11 05:45:52;;;;;;;5.35;3.67;;;;;;;;;;4957051;28;20378;-56
2022/07/11 05:48:18;;;;;;;5.63;3.58;;;;;;;;;;4974249;28;20178;-55
2022/07/11 05:50:44;;;;;;;4.78;3.38;;;;;;;;;;4974273;28;20704;-53
2022/07/11 05:53:11;;;;;;;6.03;3.58;;;;;;;;;;4971632;28;20265;-56
2022/07/11 05:55:37;;;;;;;7.13;3.92;;;;;;;;;;4971984;28;20194;-56
2022/07/11 05:58:03;;;;;;;6.65;4.00;;;;;;;;;;4958690;28;20178;-55
2022/07/11 06:00:29;;;;;;;9.85;4.80;;;;;;;;;;4973502;28;20656;-56
2022/07/11 06:02:55;;;;;;;9.38;5.30;;;;;;;;;;4973906;28;20685;-54
2022/07/11 06:05:22;;;;;;;11.77;5.43;;;;;;;;;;4973892;28;20182;-56
2022/07/11 06:10:33;;;;;;;7.28;4.32;;;;;;;;;;4973594;28;20229;-56
2022/07/11 06:12:59;;;;;;;4.57;2.42;;;;;;;;;;4973658;28;20217;-54
2022/07/11 06:15:26;;;;;;;3.45;2.30;;;;;;;;;;4972156;28;20269;-56
2022/07/11 06:17:52;;;;;;;4.97;2.92;;;;;;;;;;4974031;28;20272;-56
2022/07/11 06:20:18;;;;;;;8.57;3.17;;;;;;;;;;4972556;28;20582;-55
2022/07/11 06:22:45;;;;;;;4.43;2.88;;;;;;;;;;4956872;28;20632;-54
2022/07/11 06:25:11;;;;;;;4.40;3.08;;;;;;;;;;4973893;28;20190;-55
2022/07/11 06:27:37;;;;;;;5.32;3.40;;;;;;;;;;4973761;28;20178;-58
2022/07/11 06:30:03;;;;;;;6.22;3.60;;;;;;;;;;4956907;28;20675;-55
2022/07/11 06:32:31;;;;;;;5.05;2.80;;;;;;;;;;4973729;28;20186;-56
2022/07/11 06:34:57;;;;;;;5.32;3.00;;;;;;;;;;4971143;28;20264;-61
2022/07/11 06:37:23;;;;;;;5.15;3.17;;;;;;;;;;4973703;28;20190;-57
2022/07/11 06:39:49;;;;;;;5.70;3.05;;;;;;;;;;4973311;28;20174;-55
2022/07/11 06:42:15;;;;;;;6.47;3.10;;;;;;;;;;4955568;28;20291;-54
2022/07/11 06:56:46;;;;;;;9.57;4.55;;;;;;;;;;5110217;27;20488;-58
2022/07/11 06:59:12;;;;;;;13.57;5.28;;;;;;;;;;5110327;28;20189;-58
2022/07/11 07:01:38;;;;;;;7.70;3.83;;;;;;;;;;5109397;28;20189;-58
2022/07/11 07:04:04;;;;;;;21.33;18.63;;;;;;;;;;5109773;28;20232;-59
2022/07/11 07:06:30;;;;;;;5.65;3.60;;;;;;;;;;5110061;28;20611;-58
2022/07/11 07:08:56;;;;;;;9.65;3.30;;;;;;;;;;5109901;28;20169;-58
2022/07/11 07:11:22;;;;;;;4.13;2.65;;;;;;;;;;5108639;28;20498;-58
2022/07/11 07:13:50;;;;;;;5.45;2.78;;;;;;;;;;5108681;28;20189;-58
2022/07/11 07:16:16;;;;;;;5.00;2.50;;;;;;;;;;5109319;28;20211;-59
2022/07/11 07:18:45;;;;;;;7.78;2.80;;;;;;;;;;5106255;28;20184;-59
2022/07/11 07:21:11;;;;;;;7.10;2.92;;;;;;;;;;5089962;28;20178;-59
2022/07/11 07:23:38;;;;;;;6.05;2.55;;;;;;;;;;5098437;28;20275;-58
2022/07/11 07:26:05;;;;;;;6.85;2.92;;;;;;;;;;5108782;28;20642;-59
2022/07/11 07:28:31;;;;;;;5.60;3.25;;;;;;;;;;5105806;28;20264;-59
2022/07/11 07:30:57;;;;;;;9.43;3.40;;;;;;;;;;5088527;28;20181;-59
2022/07/11 07:33:23;;;;;;;6.40;3.92;;;;;;;;;;5099213;28;20661;-59
2022/07/11 07:35:50;;;;;;;8.02;4.38;;;;;;;;;;5106472;28;20330;-59
2022/07/11 07:38:16;;;;;;;8.57;4.40;;;;;;;;;;5107954;28;20268;-59
2022/07/11 07:40:42;;;;;;;6.95;4.78;;;;;;;;;;5108367;28;20186;-59
2022/07/11 07:43:08;;;;;;;7.40;4.80;;;;;;;;;;5086536;28;20178;-58
2022/07/11 07:45:34;;;;;;;4.10;2.97;;;;;;;;;;5106377;28;20250;-57
2022/07/11 07:48:01;;;;;;;11.70;2.47;;;;;;;;;;5107867;28;20234;-58
2022/07/11 07:50:27;;;;;;;5.03;1.90;;;;;;;;;;5108005;28;20605;-59
2022/07/11 07:52:54;;;;;;;3.80;2.13;;;;;;;;;;5099873;28;20197;-59
2022/07/11 07:55:20;;;;;;;2.92;1.60;;;;;;;;;;5109393;28;20228;-59
2022/07/11 07:57:46;;;;;;;2.53;1.50;;;;;;;;;;5094672;28;20190;-58
2022/07/11 08:03:03;;;;;;;3.10;1.60;;;;;;;;;;5077302;28;20186;-59
2022/07/11 08:05:29;;;;;;;2.08;1.13;;;;;;;;;;5076267;28;20213;-59
2022/07/11 08:07:55;;;;;;;2.05;1.27;;;;;;;;;;5094939;28;20697;-59
2022/07/11 08:10:22;;;;;;;1.52;1.35;;;;;;;;;;5077326;28;20227;-58
2022/07/11 08:12:48;;;;;;;2.30;1.70;;;;;;;;;;5094794;28;20728;-59
2022/07/11 08:15:14;;;;;;;5.45;1.70;;;;;;;;;;5093435;28;20281;-59
2022/07/11 08:17:41;;;;;;;2.97;1.05;;;;;;;;;;5095211;28;20185;-59
2022/07/11 08:20:08;;;;;;;1.58;1.15;;;;;;;;;;5094446;28;20638;-59
2022/07/11 08:22:35;;;;;;;1.63;0.90;;;;;;;;;;5091366;28;20220;-59
2022/07/11 08:25:01;;;;;;;1.60;0.90;;;;;;;;;;5060240;28;20529;-59
2022/07/11 08:27:27;;;;;;;0.80;0.80;;;;;;;;;;5093218;28;20178;-58
2022/07/11 08:29:53;;;;;;;1.70;0.80;;;;;;;;;;5094452;28;20236;-58
2022/07/11 08:32:19;;;;;;;0.93;0.88;;;;;;;;;;5094410;28;20681;-59
2022/07/11 08:34:46;;;;;;;1.70;1.60;;;;;;;;;;5094824;28;20182;-60
2022/07/11 08:37:12;;;;;;;2.10;1.55;;;;;;;;;;5094701;28;20177;-59
2022/07/11 08:39:38;;;;;;;7.47;1.98;;;;;;;;;;5094764;28;20174;-58
2022/07/11 08:42:04;;;;;;;6.93;2.30;;;;;;;;;;5092870;28;20174;-57
2022/07/11 08:44:31;;;;;;;2.67;2.10;;;;;;;;;;5090600;28;20284;-59
2022/07/11 08:46:59;;;;;;;2.60;1.55;;;;;;;;;;5094147;28;20239;-58
2022/07/11 08:49:26;;;;;;;2.08;1.70;;;;;;;;;;5092306;28;20182;-60
2022/07/11 08:51:54;;;;;;;2.38;1.35;;;;;;;;;;5094245;28;20174;-59
2022/07/11 08:54:20;;;;;;;6.10;1.60;;;;;;;;;;5079334;28;20635;-61
2022/07/11 08:56:52;;;;;;;2.55;1.52;;;;;;;;;;5092093;28;20239;-59
2022/07/11 08:59:18;;;;;;;2.33;1.40;;;;;;;;;;5094230;28;20174;-58
2022/07/11 09:01:49;;;;;;;3.53;1.73;;;;;;;;;;5093247;28;20214;-59
2022/07/11 09:04:16;;;;;;;2.20;1.20;;;;;;;;;;5093783;28;20247;-59
2022/07/11 09:06:43;;;;;;;2.65;1.20;;;;;;;;;;5075466;28;20537;-61
2022/07/11 09:09:09;;;;;;;2.45;1.40;;;;;;;;;;5074637;28;20190;-59
2022/07/11 09:11:51;;;;;;;3.75;1.60;;;;;;;;;;5093460;28;20178;-58
2022/07/11 09:14:27;;;;;;;2.83;1.80;;;;;;;;;;5092518;28;20185;-59
2022/07/11 09:16:54;;;;;;;3.70;1.48;;;;;;;;;;5094149;28;20199;-59
2022/07/11 09:19:30;;;;;;;2.33;1.15;;;;;;;;;;5094104;28;20170;-59
2022/07/11 09:27:49;;;;;;;4.95;1.20;;;;;;;;;;5093863;28;20231;-59
2022/07/11 09:30:39;;;;;;;1.52;0.88;;;;;;;;;;5093423;28;20256;-59
2022/07/11 09:33:06;;;;;;;1.60;0.90;;;;;;;;;;5093549;28;20253;-59
2022/07/11 09:35:35;;;;;;;3.22;1.45;;;;;;;;;;5093565;28;20544;-58
2022/07/11 09:38:05;;;;;;;3.25;1.95;;;;;;;;;;5093823;28;20233;-59
2022/07/11 09:40:31;;;;;;;2.70;1.60;;;;;;;;;;5089918;28;20181;-59
2022/07/11 09:42:58;;;;;;;2.08;1.50;;;;;;;;;;5085896;28;20177;-59
2022/07/11 09:45:28;;;;;;;1.73;1.05;;;;;;;;;;5093236;28;20213;-59
2022/07/11 09:47:56;;;;;;;2.55;1.58;;;;;;;;;;5093528;28;20178;-58
2022/07/11 09:50:24;;;;;;;2.78;1.20;;;;;;;;;;5091841;28;20182;-59
2022/07/11 09:53:02;;;;;;;2.03;1.40;;;;;;;;;;5093274;28;20170;-59
2022/07/11 09:55:29;;;;;;;3.03;2.30;;;;;;;;;;5092750;28;20287;-58
2022/07/11 09:57:55;;;;;;;1.60;1.20;;;;;;;;;;5092990;28;20699;-59
2022/07/11 10:00:22;;;;;;;2.60;1.15;;;;;;;;;;5092319;28;20181;-59
2022/07/11 10:02:49;;;;;;;1.10;0.90;;;;;;;;;;5075076;28;20186;-58
2022/07/11 10:05:15;;;;;;;1.00;0.90;;;;;;;;;;5092198;28;20705;-59
2022/07/11 10:07:41;;;;;;;3.60;1.48;;;;;;;;;;5093365;28;20178;-58
2022/07/11 10:10:09;;;;;;;1.73;1.20;;;;;;;;;;5091973;28;20223;-58
2022/07/11 10:12:36;;;;;;;1.65;1.20;;;;;;;;;;5090267;28;20178;-58
2022/07/11 10:15:07;;;;;;;1.20;1.10;;;;;;;;;;5091611;28;20185;-59
2022/07/11 10:18:06;;;;;;;1.55;1.00;;;;;;;;;;5092848;28;20186;-56
2022/07/11 10:20:53;;;;;;;1.20;1.10;;;;;;;;;;5037946;28;20764;-58
2022/07/11 10:23:33;;;;;;;1.40;1.00;;;;;;;;;;5093385;28;20174;-59
2022/07/11 10:26:00;;;;;;;1.13;0.80;;;;;;;;;;5092682;28;20296;-59
2022/07/11 10:28:34;;;;;;;0.88;0.88;;;;;;;;;;5091566;28;20186;-59
2022/07/11 10:31:00;;;;;;;2.13;0.98;;;;;;;;;;5092599;28;20653;-59
2022/07/11 10:33:27;;;;;;;2.92;0.90;;;;;;;;;;5092361;28;20202;-59
2022/07/11 10:35:54;;;;;;;1.35;0.90;;;;;;;;;;5092382;28;20751;-59
2022/07/11 10:38:23;;;;;;;0.85;0.85;;;;;;;;;;5092007;28;20181;-58
2022/07/11 10:40:56;;;;;;;3.28;1.20;;;;;;;;;;5090852;28;20626;-58
2022/07/11 10:43:22;;;;;;;1.67;1.10;;;;;;;;;;5090933;28;20189;-59
2022/07/11 10:45:55;;;;;;;2.92;1.40;;;;;;;;;;5092118;28;20296;-58
2022/07/11 10:48:23;;;;;;;5.95;1.70;;;;;;;;;;5091496;28;20178;-59
2022/07/11 10:50:54;;;;;;;3.28;1.40;;;;;;;;;;5092166;28;20206;-59
2022/07/11 10:53:23;;;;;;;3.25;1.42;;;;;;;;;;5087140;28;20182;-59
2022/07/11 10:56:03;;;;;;;1.70;1.25;;;;;;;;;;5092034;28;20214;-59
2022/07/11 10:58:32;;;;;;;3.97;1.60;;;;;;;;;;5092176;28;20516;-58
2022/07/11 11:01:11;;;;;;;2.25;1.65;;;;;;;;;;5091714;28;20217;-58
2022/07/11 11:03:38;;;;;;;4.32;1.58;;;;;;;;;;5091102;28;20188;-58
2022/07/11 11:06:04;;;;;;;2.42;1.90;;;;;;;;;;5091016;28;20271;-58
2022/07/11 11:08:36;;;;;;;2.95;1.60;;;;;;;;;;5092870;28;20178;-58
2022/07/11 11:11:06;;;;;;;2.22;1.38;;;;;;;;;;5091610;28;20189;-58
2022/07/11 11:13:35;;;;;;;3.15;1.77;;;;;;;;;;5092250;28;20638;-58
2022/07/11 11:16:02;;;;;;;3.95;1.35;;;;;;;;;;5092372;28;20182;-58
2022/07/11 11:18:36;;;;;;;1.50;1.30;;;;;;;;;;5091282;28;20611;-57
2022/07/11 11:21:09;;;;;;;2.00;0.73;;;;;;;;;;5087696;28;20216;-58
2022/07/11 11:24:00;;;;;;;1.45;0.70;;;;;;;;;;5087124;28;20259;-57
2022/07/11 11:26:41;;;;;;;1.77;1.23;;;;;;;;;;5088898;28;20190;-57
2022/07/11 11:29:08;;;;;;;1.50;1.30;;;;;;;;;;5088975;28;20158;-58
2022/07/11 11:31:34;;;;;;;2.22;1.10;;;;;;;;;;5089990;28;20227;-58
2022/07/11 11:34:02;;;;;;;3.63;1.27;;;;;;;;;;5092251;28;20182;-58
2022/07/11 11:36:28;;;;;;;1.77;1.10;;;;;;;;;;5092416;28;20208;-57
2022/07/11 11:38:55;;;;;;;0.80;0.80;;;;;;;;;;5091911;28;20634;-58
2022/07/11 11:41:25;;;;;;;1.50;1.00;;;;;;;;;;5091080;28;20190;-58
2022/07/11 11:43:52;;;;;;;1.27;0.93;;;;;;;;;;5073079;28;20669;-58
2022/07/11 11:46:19;;;;;;;2.40;1.30;;;;;;;;;;5092491;28;20206;-58
2022/07/11 11:48:45;;;;;;;1.67;1.20;;;;;;;;;;5092442;28;20257;-58
2022/07/11 11:51:13;;;;;;;1.20;1.00;;;;;;;;;;5092052;28;20178;-59
2022/07/11 11:53:44;;;;;;;1.50;1.20;;;;;;;;;;5082886;28;20543;-58
2022/07/11 11:56:14;;;;;;;3.33;1.38;;;;;;;;;;5074040;28;20248;-58
2022/07/11 11:58:44;;;;;;;1.10;1.00;;;;;;;;;;5092583;28;20194;-58
2022/07/11 12:01:13;;;;;;;1.83;1.30;;;;;;;;;;5094319;28;20178;-58
2022/07/11 12:03:54;;;;;;;3.28;1.60;;;;;;;;;;5093620;28;20185;-58
2022/07/11 12:06:26;;;;;;;1.92;1.35;;;;;;;;;;5093267;28;20216;-58
2022/07/11 12:08:52;;;;;;;1.35;1.17;;;;;;;;;;5082595;28;20181;-58
2022/07/11 12:11:19;;;;;;;2.10;1.30;;;;;;;;;;5092746;28;20619;-59
2022/07/11 12:13:45;;;;;;;1.80;1.60;;;;;;;;;;5074235;28;20273;-58
2022/07/11 12:19:03;;;;;;;2.85;1.60;;;;;;;;;;5092988;28;20182;-58
2022/07/11 12:21:30;;;;;;;3.42;2.05;;;;;;;;;;5092455;28;20235;-59
2022/07/11 12:24:01;;;;;;;3.15;1.55;;;;;;;;;;5092803;28;20176;-59
2022/07/11 12:26:29;;;;;;;4.35;2.03;;;;;;;;;;5092765;28;20214;-59
2022/07/11 12:29:05;;;;;;;2.30;1.60;;;;;;;;;;5077010;28;20193;-59
2022/07/11 12:31:40;;;;;;;2.45;1.30;;;;;;;;;;5071157;28;20611;-59
2022/07/11 12:34:06;;;;;;;3.05;1.33;;;;;;;;;;5088093;28;20189;-59
2022/07/11 12:36:33;;;;;;;3.30;1.40;;;;;;;;;;5074606;28;20194;-60
2022/07/11 12:38:59;;;;;;;3.53;1.45;;;;;;;;;;5091772;28;20464;-59
2022/07/11 12:41:25;;;;;;;2.22;1.30;;;;;;;;;;5090827;28;20631;-57
2022/07/11 12:46:38;;;;;;;5.32;1.20;;;;;;;;;;5078108;28;20201;-61
2022/07/11 12:49:05;;;;;;;2.63;1.30;;;;;;;;;;5094049;28;20277;-60
2022/07/11 12:51:34;;;;;;;1.92;1.23;;;;;;;;;;5094443;28;20186;-59
2022/07/11 12:54:04;;;;;;;2.88;1.20;;;;;;;;;;5092865;28;20219;-60
2022/07/11 12:56:31;;;;;;;3.35;1.20;;;;;;;;;;5094796;28;20305;-59
2022/07/11 12:58:57;;;;;;;3.03;1.05;;;;;;;;;;5094305;28;20209;-59
2022/07/11 13:01:24;;;;;;;1.15;0.90;;;;;;;;;;5094375;28;20174;-59
2022/07/11 13:03:51;;;;;;;2.28;1.30;;;;;;;;;;5091560;28;20194;-59
2022/07/11 13:06:17;;;;;;;3.25;1.60;;;;;;;;;;5094062;28;20230;-59
2022/07/11 13:08:45;;;;;;;3.65;1.30;;;;;;;;;;5094127;28;20186;-59
2022/07/11 13:11:15;;;;;;;2.20;1.55;;;;;;;;;;5092898;28;20250;-59
2022/07/11 13:13:43;;;;;;;3.83;1.58;;;;;;;;;;5094118;28;20251;-59
2022/07/11 13:16:10;;;;;;;1.88;1.30;;;;;;;;;;5094180;28;20185;-59
2022/07/11 13:18:37;;;;;;;3.05;1.30;;;;;;;;;;5093892;28;20209;-58
2022/07/11 13:21:04;;;;;;;6.57;1.50;;;;;;;;;;5090784;28;20183;-58
2022/07/11 13:23:31;;;;;;;2.15;1.15;;;;;;;;;;5094049;28;20631;-58
2022/07/11 13:25:58;;;;;;;5.13;1.50;;;;;;;;;;5093686;28;20205;-58
2022/07/11 13:28:24;;;;;;;2.53;1.30;;;;;;;;;;5094373;28;20205;-58
2022/07/11 13:30:50;;;;;;;3.25;1.40;;;;;;;;;;5074685;28;20181;-58
2022/07/11 13:33:16;;;;;;;2.00;1.30;;;;;;;;;;5092347;28;20177;-57
2022/07/11 13:35:42;;;;;;;1.83;1.23;;;;;;;;;;5093795;28;20635;-58
2022/07/11 13:38:08;;;;;;;1.92;1.30;;;;;;;;;;5075348;28;20189;-58
2022/07/11 13:40:35;;;;;;;3.35;1.40;;;;;;;;;;5091884;28;20182;-59
2022/07/11 13:43:02;;;;;;;5.65;1.45;;;;;;;;;;5093215;28;20178;-59
2022/07/11 13:45:28;;;;;;;4.07;1.50;;;;;;;;;;5092980;28;20263;-59
2022/07/11 13:47:54;;;;;;;6.05;1.55;;;;;;;;;;5092282;28;20273;-59
2022/07/11 13:50:23;;;;;;;7.60;1.65;;;;;;;;;;5093607;28;20185;-59
2022/07/11 13:52:50;;;;;;;4.43;1.80;;;;;;;;;;5092224;28;20606;-59
2022/07/11 13:55:19;;;;;;;6.35;1.67;;;;;;;;;;5092181;28;20237;-58
2022/07/11 13:57:49;;;;;;;4.20;1.80;;;;;;;;;;5093294;28;20186;-59
2022/07/11 14:00:15;;;;;;;6.97;2.45;;;;;;;;;;5093568;28;20170;-59
2022/07/11 14:02:42;;;;;;;4.45;1.90;;;;;;;;;;5088298;28;20191;-58
2022/07/11 14:05:09;;;;;;;3.72;1.92;;;;;;;;;;5089139;28;20347;-59
2022/07/11 14:07:35;;;;;;;2.85;1.85;;;;;;;;;;5088282;28;20204;-58
2022/07/11 14:10:05;;;;;;;2.85;1.30;;;;;;;;;;5090054;28;20244;-59
2022/07/11 14:12:31;;;;;;;3.78;1.70;;;;;;;;;;5072163;28;20185;-59
2022/07/11 14:14:57;;;;;;;3.20;1.70;;;;;;;;;;5081474;28;20233;-59
2022/07/11 14:17:25;;;;;;;3.85;1.75;;;;;;;;;;5069599;28;20243;-60
2022/07/11 14:19:51;;;;;;;7.30;1.88;;;;;;;;;;5085228;28;20273;-60
2022/07/11 14:22:17;;;;;;;2.80;1.55;;;;;;;;;;5091748;28;20177;-60
2022/07/11 14:24:43;;;;;;;3.22;1.70;;;;;;;;;;5091604;28;20221;-61
2022/07/11 14:27:10;;;;;;;3.88;1.95;;;;;;;;;;5092384;28;20173;-59
2022/07/11 14:29:36;;;;;;;5.00;1.88;;;;;;;;;;5091992;28;20184;-59
2022/07/11 14:32:02;;;;;;;4.07;1.88;;;;;;;;;;5091895;28;20183;-61
2022/07/11 14:34:29;;;;;;;4.32;2.45;;;;;;;;;;5091269;28;20276;-59
2022/07/11 14:36:55;;;;;;;4.65;1.92;;;;;;;;;;5090885;28;20185;-60
2022/07/11 14:39:21;;;;;;;4.03;1.90;;;;;;;;;;5073775;28;20181;-59
2022/07/11 14:41:47;;;;;;;3.90;1.55;;;;;;;;;;5092238;28;20177;-59
2022/07/11 14:44:14;;;;;;;6.53;1.90;;;;;;;;;;5069598;28;20238;-60
2022/07/11 14:46:41;;;;;;;3.15;1.92;;;;;;;;;;5090135;28;20278;-58
2022/07/11 14:49:08;;;;;;;6.43;1.70;;;;;;;;;;5089407;28;20185;-60
2022/07/11 14:51:35;;;;;;;5.82;2.20;;;;;;;;;;5092249;28;20188;-59
2022/07/11 14:54:02;;;;;;;5.55;2.40;;;;;;;;;;5086922;28;20180;-60
2022/07/11 14:56:28;;;;;;;4.57;1.95;;;;;;;;;;5088980;28;20241;-58
2022/07/11 14:58:54;;;;;;;6.13;2.33;;;;;;;;;;5086363;28;20185;-58
2022/07/11 15:01:21;;;;;;;3.78;2.20;;;;;;;;;;5088521;28;20189;-59
2022/07/11 15:03:47;;;;;;;8.02;2.55;;;;;;;;;;5085615;28;20195;-59
2022/07/11 15:06:14;;;;;;;6.70;2.10;;;;;;;;;;5052203;28;20559;-59
2022/07/11 15:25:56;;;;;;;3.97;2.00;;;;;;;;;;5056595;27;1312982;-60
2022/07/11 15:28:22;;;;;;;3.20;1.83;;;;;;;;;;5086217;28;20239;-60
2022/07/11 15:30:48;;;;;;;4.25;2.03;;;;;;;;;;5071783;28;20186;-60
2022/07/11 15:33:14;;;;;;;7.90;2.05;;;;;;;;;;5073746;28;20194;-59
2022/07/11 15:35:40;;;;;;;3.50;2.08;;;;;;;;;;5088020;28;20221;-59
2022/07/11 15:38:06;;;;;;;3.55;2.00;;;;;;;;;;5087014;28;20658;-59